sensor_id;sensor_type;location;lat;lon;timestamp;pressure;altitude;pressure_sealevel;temperature;humidity
57616;BME280;43816;52.054;-9.494;2023-03-11T00:00:01;99768.72;;;15.25;43.14
57616;BME280;43816;52.054;-9.494;2023-03-11T00:00:14;99771.59;;;15.32;42.86
57616;BME280;43816;52.054;-9.494;2023-03-11T00:00:27;99766.16;;;15.32;42.97
57616;BME280;43816;52.054;-9.494;2023-03-11T00:00:41;99760.41;;;15.27;42.92
57616;BME280;43816;52.054;-9.494;2023-03-11T00:00:52;99767.22;;;15.31;42.79
57616;BME280;43816;52.054;-9.494;2023-03-11T00:01:03;99742.16;;;15.21;43.28
57616;BME280;43816;52.054;-9.494;2023-03-11T00:01:13;99766.53;;;15.29;42.98
57616;BME280;43816;52.054;-9.494;2023-03-11T00:01:24;99739.13;;;15.15;43.04
57616;BME280;43816;52.054;-9.494;2023-03-11T00:01:34;99755.88;;;15.27;43.10
57616;BME280;43816;52.054;-9.494;2023-03-11T00:01:45;99755.31;;;15.32;43.08
57616;BME280;43816;52.054;-9.494;2023-03-11T00:01:55;99759.91;;;15.31;43.16
57616;BME280;43816;52.054;-9.494;2023-03-11T00:02:06;99739.47;;;15.21;43.30
57616;BME280;43816;52.054;-9.494;2023-03-11T00:02:16;99760.41;;;15.27;43.13
57616;BME280;43816;52.054;-9.494;2023-03-11T00:02:27;99744.72;;;15.22;42.93
57616;BME280;43816;52.054;-9.494;2023-03-11T00:02:40;99758.59;;;15.27;42.91
57616;BME280;43816;52.054;-9.494;2023-03-11T00:02:53;99764.50;;;15.31;42.91
57616;BME280;43816;52.054;-9.494;2023-03-11T00:03:06;99763.13;;;15.27;42.97
57616;BME280;43816;52.054;-9.494;2023-03-11T00:03:18;99768.03;;;15.31;43.15
57616;BME280;43816;52.054;-9.494;2023-03-11T00:03:28;99760.41;;;15.27;42.70
57616;BME280;43816;52.054;-9.494;2023-03-11T00:03:39;99770.75;;;15.31;42.86
57616;BME280;43816;52.054;-9.494;2023-03-11T00:03:49;99744.19;;;15.18;42.94
57616;BME280;43816;52.054;-9.494;2023-03-11T00:03:59;99747.94;;;15.17;43.18
57616;BME280;43816;52.054;-9.494;2023-03-11T00:04:10;99750.28;;;15.21;43.06
57616;BME280;43816;52.054;-9.494;2023-03-11T00:04:20;99764.50;;;15.31;42.87
57616;BME280;43816;52.054;-9.494;2023-03-11T00:04:30;99757.88;;;15.25;43.04
57616;BME280;43816;52.054;-9.494;2023-03-11T00:04:41;99767.53;;;15.28;43.22
57616;BME280;43816;52.054;-9.494;2023-03-11T00:04:51;99771.59;;;15.32;43.12
57616;BME280;43816;52.054;-9.494;2023-03-11T00:05:01;99757.72;;;15.27;42.72
57616;BME280;43816;52.054;-9.494;2023-03-11T00:05:15;99751.97;;;15.22;42.90
57616;BME280;43816;52.054;-9.494;2023-03-11T00:05:29;99755.88;;;15.27;42.97
57616;BME280;43816;52.054;-9.494;2023-03-11T00:05:42;99766.53;;;15.29;42.86
57616;BME280;43816;52.054;-9.494;2023-03-11T00:05:53;99749.25;;;15.22;42.69
57616;BME280;43816;52.054;-9.494;2023-03-11T00:06:03;99757.53;;;15.28;42.78
57616;BME280;43816;52.054;-9.494;2023-03-11T00:06:14;99766.16;;;15.32;42.76
57616;BME280;43816;52.054;-9.494;2023-03-11T00:06:24;99760.59;;;15.25;43.01
57616;BME280;43816;52.054;-9.494;2023-03-11T00:06:35;99762.13;;;15.28;42.70
57616;BME280;43816;52.054;-9.494;2023-03-11T00:06:45;99746.88;;;15.18;42.93
57616;BME280;43816;52.054;-9.494;2023-03-11T00:06:56;99756.72;;;15.20;43.01
57616;BME280;43816;52.054;-9.494;2023-03-11T00:07:07;99774.28;;;15.32;42.79
57616;BME280;43816;52.054;-9.494;2023-03-11T00:07:18;99738.78;;;15.10;42.79
57616;BME280;43816;52.054;-9.494;2023-03-11T00:07:28;99748.25;;;15.23;42.82
57616;BME280;43816;52.054;-9.494;2023-03-11T00:07:38;99766.72;;;15.27;43.25
57616;BME280;43816;52.054;-9.494;2023-03-11T00:07:49;99775.16;;;15.32;42.97
57616;BME280;43816;52.054;-9.494;2023-03-11T00:08:00;99763.47;;;15.24;43.03
57616;BME280;43816;52.054;-9.494;2023-03-11T00:08:13;99771.75;;;15.30;42.75
57616;BME280;43816;52.054;-9.494;2023-03-11T00:08:25;99747.94;;;15.17;43.06
57616;BME280;43816;52.054;-9.494;2023-03-11T00:08:35;99742.00;;;15.14;42.89
57616;BME280;43816;52.054;-9.494;2023-03-11T00:08:45;99756.38;;;15.23;43.02
57616;BME280;43816;52.054;-9.494;2023-03-11T00:08:55;99757.22;;;15.23;42.80
57616;BME280;43816;52.054;-9.494;2023-03-11T00:09:06;99748.75;;;15.18;43.04
57616;BME280;43816;52.054;-9.494;2023-03-11T00:09:16;99749.91;;;15.24;43.20
57616;BME280;43816;52.054;-9.494;2023-03-11T00:09:26;99746.88;;;15.18;42.72
57616;BME280;43816;52.054;-9.494;2023-03-11T00:09:37;99762.47;;;15.25;42.85
57616;BME280;43816;52.054;-9.494;2023-03-11T00:09:47;99765.34;;;15.31;42.82
57616;BME280;43816;52.054;-9.494;2023-03-11T00:09:58;99756.03;;;15.26;43.11
57616;BME280;43816;52.054;-9.494;2023-03-11T00:10:14;99765.34;;;15.31;42.69
57616;BME280;43816;52.054;-9.494;2023-03-11T00:10:37;99738.25;;;15.15;42.82
57616;BME280;43816;52.054;-9.494;2023-03-11T00:10:51;99766.16;;;15.32;43.07
57616;BME280;43816;52.054;-9.494;2023-03-11T00:11:02;99748.41;;;15.21;42.75
57616;BME280;43816;52.054;-9.494;2023-03-11T00:11:12;99740.13;;;15.14;43.18
57616;BME280;43816;52.054;-9.494;2023-03-11T00:11:22;99732.53;;;15.10;42.83
57616;BME280;43816;52.054;-9.494;2023-03-11T00:11:33;99769.03;;;15.30;43.05
57616;BME280;43816;52.054;-9.494;2023-03-11T00:11:43;99740.31;;;15.13;42.56
57616;BME280;43816;52.054;-9.494;2023-03-11T00:11:53;99761.78;;;15.31;43.03
57616;BME280;43816;52.054;-9.494;2023-03-11T00:12:04;99763.63;;;15.30;42.87
57616;BME280;43816;52.054;-9.494;2023-03-11T00:12:14;99742.00;;;15.14;42.70
57616;BME280;43816;52.054;-9.494;2023-03-11T00:12:24;99752.63;;;15.24;42.84
57616;BME280;43816;52.054;-9.494;2023-03-11T00:12:35;99757.22;;;15.23;42.86
57616;BME280;43816;52.054;-9.494;2023-03-11T00:12:45;99761.81;;;15.23;43.13
57616;BME280;43816;52.054;-9.494;2023-03-11T00:12:56;99767.72;;;15.26;42.74
57616;BME280;43816;52.054;-9.494;2023-03-11T00:13:09;99753.00;;;15.21;43.11
57616;BME280;43816;52.054;-9.494;2023-03-11T00:13:20;99743.84;;;15.13;42.94
57616;BME280;43816;52.054;-9.494;2023-03-11T00:13:30;99752.47;;;15.25;42.93
57616;BME280;43816;52.054;-9.494;2023-03-11T00:13:40;99759.91;;;15.31;43.15
57616;BME280;43816;52.054;-9.494;2023-03-11T00:13:50;99767.03;;;15.32;43.17
57616;BME280;43816;52.054;-9.494;2023-03-11T00:14:01;99763.47;;;15.32;42.79
57616;BME280;43816;52.054;-9.494;2023-03-11T00:14:11;99756.53;;;15.29;42.75
57616;BME280;43816;52.054;-9.494;2023-03-11T00:14:21;99753.66;;;15.31;43.01
57616;BME280;43816;52.054;-9.494;2023-03-11T00:14:32;99739.47;;;15.21;43.10
57616;BME280;43816;52.054;-9.494;2023-03-11T00:14:42;99731.66;;;15.17;42.77
57616;BME280;43816;52.054;-9.494;2023-03-11T00:14:52;99746.38;;;15.23;43.12
57616;BME280;43816;52.054;-9.494;2023-03-11T00:15:03;99753.34;;;15.26;42.83
57616;BME280;43816;52.054;-9.494;2023-03-11T00:15:13;99739.63;;;15.19;42.90
57616;BME280;43816;52.054;-9.494;2023-03-11T00:15:24;99744.50;;;15.24;43.14
57616;BME280;43816;52.054;-9.494;2023-03-11T00:15:34;99734.88;;;15.13;43.00
57616;BME280;43816;52.054;-9.494;2023-03-11T00:15:47;99736.59;;;15.14;42.90
57616;BME280;43816;52.054;-9.494;2023-03-11T00:15:59;99755.31;;;15.32;43.05
57616;BME280;43816;52.054;-9.494;2023-03-11T00:16:10;99750.44;;;15.27;43.05
57616;BME280;43816;52.054;-9.494;2023-03-11T00:16:20;99745.53;;;15.23;43.10
57616;BME280;43816;52.054;-9.494;2023-03-11T00:16:30;99750.63;;;15.26;43.07
57616;BME280;43816;52.054;-9.494;2023-03-11T00:16:40;99751.13;;;15.29;42.61
57616;BME280;43816;52.054;-9.494;2023-03-11T00:16:51;99766.16;;;15.32;42.76
57616;BME280;43816;52.054;-9.494;2023-03-11T00:17:01;99752.28;;;15.27;42.69
57616;BME280;43816;52.054;-9.494;2023-03-11T00:17:11;99733.16;;;15.20;42.80
57616;BME280;43816;52.054;-9.494;2023-03-11T00:17:22;99744.34;;;15.25;42.81
57616;BME280;43816;52.054;-9.494;2023-03-11T00:17:32;99756.88;;;15.26;43.02
57616;BME280;43816;52.054;-9.494;2023-03-11T00:17:42;99731.00;;;15.15;43.28
57616;BME280;43816;52.054;-9.494;2023-03-11T00:17:53;99757.19;;;15.31;43.25
57616;BME280;43816;52.054;-9.494;2023-03-11T00:18:04;99741.78;;;15.24;43.04
57616;BME280;43816;52.054;-9.494;2023-03-11T00:18:15;99736.75;;;15.21;42.84
57616;BME280;43816;52.054;-9.494;2023-03-11T00:18:27;99756.38;;;15.31;42.84
57616;BME280;43816;52.054;-9.494;2023-03-11T00:18:37;99749.91;;;15.24;43.00
57616;BME280;43816;52.054;-9.494;2023-03-11T00:18:51;99766.16;;;15.32;42.69
57616;BME280;43816;52.054;-9.494;2023-03-11T00:19:01;99769.91;;;15.31;42.98
57616;BME280;43816;52.054;-9.494;2023-03-11T00:19:11;99756.38;;;15.23;43.08
57616;BME280;43816;52.054;-9.494;2023-03-11T00:19:22;99756.38;;;15.23;42.59
57616;BME280;43816;52.054;-9.494;2023-03-11T00:19:32;99770.09;;;15.29;42.70
57616;BME280;43816;52.054;-9.494;2023-03-11T00:19:42;99761.47;;;15.26;42.71
57616;BME280;43816;52.054;-9.494;2023-03-11T00:19:52;99756.03;;;15.26;42.71
57616;BME280;43816;52.054;-9.494;2023-03-11T00:20:04;99771.59;;;15.32;42.89
57616;BME280;43816;52.054;-9.494;2023-03-11T00:20:24;99755.53;;;15.22;42.90
57616;BME280;43816;52.054;-9.494;2023-03-11T00:20:36;99760.09;;;15.30;42.77
57616;BME280;43816;52.054;-9.494;2023-03-11T00:20:47;99756.03;;;15.26;42.96
57616;BME280;43816;52.054;-9.494;2023-03-11T00:20:58;99773.47;;;15.31;43.02
57616;BME280;43816;52.054;-9.494;2023-03-11T00:21:16;99747.59;;;15.21;43.04
57616;BME280;43816;52.054;-9.494;2023-03-11T00:21:27;99738.97;;;15.09;42.40
57616;BME280;43816;52.054;-9.494;2023-03-11T00:21:37;99704.97;;;14.90;42.63
57616;BME280;43816;52.054;-9.494;2023-03-11T00:21:47;99743.69;;;15.15;42.63
57616;BME280;43816;52.054;-9.494;2023-03-11T00:21:57;99771.25;;;15.27;42.82
57616;BME280;43816;52.054;-9.494;2023-03-11T00:22:08;99753.00;;;15.21;42.54
57616;BME280;43816;52.054;-9.494;2023-03-11T00:22:18;99737.78;;;15.11;42.66
57616;BME280;43816;52.054;-9.494;2023-03-11T00:22:28;99744.88;;;15.12;42.88
57616;BME280;43816;52.054;-9.494;2023-03-11T00:22:39;99780.59;;;15.32;42.42
57616;BME280;43816;52.054;-9.494;2023-03-11T00:22:49;99758.59;;;15.19;42.74
57616;BME280;43816;52.054;-9.494;2023-03-11T00:23:00;99765.19;;;15.25;42.90
57616;BME280;43816;52.054;-9.494;2023-03-11T00:23:12;99771.25;;;15.27;43.09
57616;BME280;43816;52.054;-9.494;2023-03-11T00:23:24;99768.38;;;15.28;43.03
57616;BME280;43816;52.054;-9.494;2023-03-11T00:23:34;99779.06;;;15.30;42.92
57616;BME280;43816;52.054;-9.494;2023-03-11T00:23:45;99764.84;;;15.20;42.53
57616;BME280;43816;52.054;-9.494;2023-03-11T00:23:56;99764.50;;;15.23;42.54
57616;BME280;43816;52.054;-9.494;2023-03-11T00:24:06;99767.56;;;15.20;42.77
57616;BME280;43816;52.054;-9.494;2023-03-11T00:24:17;99771.28;;;15.18;42.49
57616;BME280;43816;52.054;-9.494;2023-03-11T00:24:27;99759.44;;;15.11;42.92
57616;BME280;43816;52.054;-9.494;2023-03-11T00:24:38;99784.47;;;15.30;42.97
57616;BME280;43816;52.054;-9.494;2023-03-11T00:24:48;99767.56;;;15.20;43.03
57616;BME280;43816;52.054;-9.494;2023-03-11T00:24:58;99782.81;;;15.29;42.53
57616;BME280;43816;52.054;-9.494;2023-03-11T00:25:11;99765.34;;;15.15;42.72
57616;BME280;43816;52.054;-9.494;2023-03-11T00:25:23;99778.72;;;15.25;42.93
57616;BME280;43816;52.054;-9.494;2023-03-11T00:25:36;99781.59;;;15.31;43.00
57616;BME280;43816;52.054;-9.494;2023-03-11T00:25:47;99764.84;;;15.20;42.96
57616;BME280;43816;52.054;-9.494;2023-03-11T00:25:57;99768.41;;;15.20;42.87
57616;BME280;43816;52.054;-9.494;2023-03-11T00:26:07;99773.13;;;15.26;42.76
57616;BME280;43816;52.054;-9.494;2023-03-11T00:26:18;99769.59;;;15.26;42.75
57616;BME280;43816;52.054;-9.494;2023-03-11T00:26:28;99773.13;;;15.26;42.80
57616;BME280;43816;52.054;-9.494;2023-03-11T00:26:38;99762.97;;;15.20;42.96
57616;BME280;43816;52.054;-9.494;2023-03-11T00:26:49;99769.25;;;15.21;43.34
57616;BME280;43816;52.054;-9.494;2023-03-11T00:26:59;99778.56;;;15.26;43.10
57616;BME280;43816;52.054;-9.494;2023-03-11T00:27:09;99776.00;;;15.25;42.91
57616;BME280;43816;52.054;-9.494;2023-03-11T00:27:20;99783.13;;;15.26;42.80
57616;BME280;43816;52.054;-9.494;2023-03-11T00:27:30;99769.59;;;15.17;42.64
57616;BME280;43816;52.054;-9.494;2023-03-11T00:27:40;99776.00;;;15.25;43.12
57616;BME280;43816;52.054;-9.494;2023-03-11T00:27:51;99783.47;;;15.31;42.83
57616;BME280;43816;52.054;-9.494;2023-03-11T00:28:02;99790.56;;;15.32;42.89
57616;BME280;43816;52.054;-9.494;2023-03-11T00:28:13;99766.38;;;15.22;42.93
57616;BME280;43816;52.054;-9.494;2023-03-11T00:28:24;99768.41;;;15.20;43.04
57616;BME280;43816;52.054;-9.494;2023-03-11T00:28:34;99787.84;;;15.32;43.04
57616;BME280;43816;52.054;-9.494;2023-03-11T00:28:44;99764.19;;;15.17;42.94
57616;BME280;43816;52.054;-9.494;2023-03-11T00:28:55;99764.19;;;15.17;43.08
57616;BME280;43816;52.054;-9.494;2023-03-11T00:29:05;99783.81;;;15.28;43.03
57616;BME280;43816;52.054;-9.494;2023-03-11T00:29:15;99782.44;;;15.24;43.10
57616;BME280;43816;52.054;-9.494;2023-03-11T00:29:26;99789.56;;;15.33;42.90
57616;BME280;43816;52.054;-9.494;2023-03-11T00:29:36;99779.22;;;15.28;42.80
57616;BME280;43816;52.054;-9.494;2023-03-11T00:29:46;99750.16;;;15.06;42.96
57616;BME280;43816;52.054;-9.494;2023-03-11T00:29:56;99753.69;;;15.14;42.50
57616;BME280;43816;52.054;-9.494;2023-03-11T00:30:07;99782.81;;;15.29;42.76
57616;BME280;43816;52.054;-9.494;2023-03-11T00:30:18;99792.44;;;15.31;42.52
57616;BME280;43816;52.054;-9.494;2023-03-11T00:30:29;99790.41;;;15.25;42.36
57616;BME280;43816;52.054;-9.494;2023-03-11T00:30:41;99793.28;;;15.32;42.42
57616;BME280;43816;52.054;-9.494;2023-03-11T00:30:51;99795.13;;;15.31;42.75
57616;BME280;43816;52.054;-9.494;2023-03-11T00:31:02;99770.09;;;15.21;42.52
57616;BME280;43816;52.054;-9.494;2023-03-11T00:31:12;99788.38;;;15.27;42.64
57616;BME280;43816;52.054;-9.494;2023-03-11T00:31:23;99769.94;;;15.23;43.04
57616;BME280;43816;52.054;-9.494;2023-03-11T00:31:33;99769.59;;;15.17;42.87
57616;BME280;43816;52.054;-9.494;2023-03-11T00:31:43;99784.81;;;15.27;42.63
57616;BME280;43816;52.054;-9.494;2023-03-11T00:31:53;99778.06;;;15.23;43.04
57616;BME280;43816;52.054;-9.494;2023-03-11T00:32:04;99773.31;;;15.16;42.88
57616;BME280;43816;52.054;-9.494;2023-03-11T00:32:15;99780.59;;;15.24;43.06
57616;BME280;43816;52.054;-9.494;2023-03-11T00:32:25;99779.41;;;15.27;43.11
57616;BME280;43816;52.054;-9.494;2023-03-11T00:32:35;99795.97;;;15.32;42.67
57616;BME280;43816;52.054;-9.494;2023-03-11T00:32:53;99802.28;;;15.32;42.91
57616;BME280;43816;52.054;-9.494;2023-03-11T00:33:04;99788.88;;;15.31;43.21
57616;BME280;43816;52.054;-9.494;2023-03-11T00:33:15;99776.34;;;15.22;43.14
57616;BME280;43816;52.054;-9.494;2023-03-11T00:33:25;99771.28;;;15.18;43.02
57616;BME280;43816;52.054;-9.494;2023-03-11T00:33:35;99786.69;;;15.26;42.97
57616;BME280;43816;52.054;-9.494;2023-03-11T00:33:46;99789.22;;;15.28;42.77
57616;BME280;43816;52.054;-9.494;2023-03-11T00:33:56;99795.47;;;15.28;42.77
57616;BME280;43816;52.054;-9.494;2023-03-11T00:34:07;99773.50;;;15.15;42.74
57616;BME280;43816;52.054;-9.494;2023-03-11T00:34:17;99780.28;;;15.19;42.98
57616;BME280;43816;52.054;-9.494;2023-03-11T00:34:27;99795.13;;;15.31;43.01
57616;BME280;43816;52.054;-9.494;2023-03-11T00:34:37;99789.56;;;15.25;42.74
57616;BME280;43816;52.054;-9.494;2023-03-11T00:34:48;99799.06;;;15.29;42.75
57616;BME280;43816;52.054;-9.494;2023-03-11T00:34:58;99794.81;;;15.26;42.67
57616;BME280;43816;52.054;-9.494;2023-03-11T00:35:12;99806.81;;;15.32;42.47
57616;BME280;43816;52.054;-9.494;2023-03-11T00:35:26;99785.16;;;15.24;42.73
57616;BME280;43816;52.054;-9.494;2023-03-11T00:35:37;99784.16;;;15.25;42.92
57616;BME280;43816;52.054;-9.494;2023-03-11T00:35:49;99788.72;;;15.32;42.88
57616;BME280;43816;52.054;-9.494;2023-03-11T00:35:59;99778.72;;;15.25;42.70
57616;BME280;43816;52.054;-9.494;2023-03-11T00:36:22;99789.56;;;15.33;42.79
57616;BME280;43816;52.054;-9.494;2023-03-11T00:36:33;99737.78;;;15.03;43.02
57616;BME280;43816;52.054;-9.494;2023-03-11T00:36:43;99786.19;;;15.23;42.99
57616;BME280;43816;52.054;-9.494;2023-03-11T00:36:53;99780.75;;;15.23;42.74
57616;BME280;43816;52.054;-9.494;2023-03-11T00:37:03;99786.50;;;15.28;42.96
57616;BME280;43816;52.054;-9.494;2023-03-11T00:37:14;99789.88;;;15.30;43.13
57616;BME280;43816;52.054;-9.494;2023-03-11T00:37:24;99792.28;;;15.25;42.82
57616;BME280;43816;52.054;-9.494;2023-03-11T00:37:34;99787.38;;;15.20;42.68
57616;BME280;43816;52.054;-9.494;2023-03-11T00:37:46;99787.19;;;15.22;42.39
57616;BME280;43816;52.054;-9.494;2023-03-11T00:37:59;99799.56;;;15.32;42.96
57616;BME280;43816;52.054;-9.494;2023-03-11T00:38:13;99782.44;;;15.24;42.95
57616;BME280;43816;52.054;-9.494;2023-03-11T00:38:23;99769.63;;;15.09;42.77
57616;BME280;43816;52.054;-9.494;2023-03-11T00:38:34;99783.81;;;15.20;42.75
57616;BME280;43816;52.054;-9.494;2023-03-11T00:38:44;99796.53;;;15.27;42.42
57616;BME280;43816;52.054;-9.494;2023-03-11T00:38:54;99789.06;;;15.21;42.54
57616;BME280;43816;52.054;-9.494;2023-03-11T00:39:05;99804.09;;;15.32;42.52
57616;BME280;43816;52.054;-9.494;2023-03-11T00:39:15;99792.28;;;15.25;42.61
57616;BME280;43816;52.054;-9.494;2023-03-11T00:39:25;99794.31;;;15.31;42.70
57616;BME280;43816;52.054;-9.494;2023-03-11T00:39:36;99786.69;;;15.26;42.97
57616;BME280;43816;52.054;-9.494;2023-03-11T00:39:46;99776.03;;;15.16;42.89
57616;BME280;43816;52.054;-9.494;2023-03-11T00:39:56;99794.66;;;15.28;42.91
57616;BME280;43816;52.054;-9.494;2023-03-11T00:40:11;99788.06;;;15.22;42.58
57616;BME280;43816;52.054;-9.494;2023-03-11T00:40:23;99804.09;;;15.32;42.68
57616;BME280;43816;52.054;-9.494;2023-03-11T00:40:34;99808.69;;;15.31;42.86
57616;BME280;43816;52.054;-9.494;2023-03-11T00:40:46;99803.28;;;15.31;42.83
57616;BME280;43816;52.054;-9.494;2023-03-11T00:40:57;99795.66;;;15.27;42.79
57616;BME280;43816;52.054;-9.494;2023-03-11T00:41:07;99790.78;;;15.22;42.64
57616;BME280;43816;52.054;-9.494;2023-03-11T00:41:17;99788.38;;;15.27;42.54
57616;BME280;43816;52.054;-9.494;2023-03-11T00:41:27;99769.44;;;15.19;42.52
57616;BME280;43816;52.054;-9.494;2023-03-11T00:41:38;99776.84;;;15.25;42.78
57616;BME280;43816;52.054;-9.494;2023-03-11T00:41:48;99766.22;;;15.15;42.67
57616;BME280;43816;52.054;-9.494;2023-03-11T00:41:59;99782.44;;;15.24;42.92
57616;BME280;43816;52.054;-9.494;2023-03-11T00:42:09;99787.84;;;15.24;42.71
57616;BME280;43816;52.054;-9.494;2023-03-11T00:42:19;99789.88;;;15.30;42.54
57616;BME280;43816;52.054;-9.494;2023-03-11T00:42:30;99778.91;;;15.23;42.57
57616;BME280;43816;52.054;-9.494;2023-03-11T00:42:40;99804.97;;;15.32;42.39
57616;BME280;43816;52.054;-9.494;2023-03-11T00:42:50;99798.19;;;15.28;42.59
57616;BME280;43816;52.054;-9.494;2023-03-11T00:43:01;99781.59;;;15.23;42.49
57616;BME280;43816;52.054;-9.494;2023-03-11T00:43:12;99810.41;;;15.32;42.49
57616;BME280;43816;52.054;-9.494;2023-03-11T00:43:23;99808.53;;;15.33;42.77
57616;BME280;43816;52.054;-9.494;2023-03-11T00:43:33;99789.06;;;15.21;42.75
57616;BME280;43816;52.054;-9.494;2023-03-11T00:43:43;99778.22;;;15.21;42.87
57616;BME280;43816;52.054;-9.494;2023-03-11T00:43:54;99806.81;;;15.32;42.44
57616;BME280;43816;52.054;-9.494;2023-03-11T00:44:04;99782.28;;;15.17;42.54
57616;BME280;43816;52.054;-9.494;2023-03-11T00:44:14;99791.78;;;15.21;42.60
57616;BME280;43816;52.054;-9.494;2023-03-11T00:44:24;99781.94;;;15.20;42.39
57616;BME280;43816;52.054;-9.494;2023-03-11T00:44:35;99802.78;;;15.28;42.69
57616;BME280;43816;52.054;-9.494;2023-03-11T00:44:45;99796.00;;;15.24;42.72
57616;BME280;43816;52.054;-9.494;2023-03-11T00:44:55;99792.28;;;15.25;43.02
57616;BME280;43816;52.054;-9.494;2023-03-11T00:45:06;99792.44;;;15.23;43.01
57616;BME280;43816;52.054;-9.494;2023-03-11T00:45:17;99780.44;;;15.17;42.44
57616;BME280;43816;52.054;-9.494;2023-03-11T00:45:29;99809.69;;;15.30;42.84
57616;BME280;43816;52.054;-9.494;2023-03-11T00:45:39;99804.09;;;15.32;42.87
57616;BME280;43816;52.054;-9.494;2023-03-11T00:45:49;99792.94;;;15.18;42.99
57616;BME280;43816;52.054;-9.494;2023-03-11T00:46:00;99785.38;;;15.14;42.66
57616;BME280;43816;52.054;-9.494;2023-03-11T00:46:10;99799.72;;;15.23;42.79
57616;BME280;43816;52.054;-9.494;2023-03-11T00:46:20;99784.31;;;15.15;42.69
57616;BME280;43816;52.054;-9.494;2023-03-11T00:46:31;99783.31;;;15.16;42.89
57616;BME280;43816;52.054;-9.494;2023-03-11T00:46:41;99792.63;;;15.22;42.61
57616;BME280;43816;52.054;-9.494;2023-03-11T00:46:51;99806.50;;;15.27;42.90
57616;BME280;43816;52.054;-9.494;2023-03-11T00:47:01;99814.13;;;15.31;42.77
57616;BME280;43816;52.054;-9.494;2023-03-11T00:47:12;99792.94;;;15.18;42.72
57616;BME280;43816;52.054;-9.494;2023-03-11T00:47:22;99802.28;;;15.24;43.11
57616;BME280;43816;52.054;-9.494;2023-03-11T00:47:32;99810.41;;;15.32;42.68
57616;BME280;43816;52.054;-9.494;2023-03-11T00:47:43;99810.41;;;15.32;42.97
57616;BME280;43816;52.054;-9.494;2023-03-11T00:47:54;99814.94;;;15.32;42.80
57616;BME280;43816;52.054;-9.494;2023-03-11T00:48:05;99810.41;;;15.32;43.02
57616;BME280;43816;52.054;-9.494;2023-03-11T00:48:15;99791.09;;;15.19;43.19
57616;BME280;43816;52.054;-9.494;2023-03-11T00:48:26;99805.81;;;15.25;42.94
57616;BME280;43816;52.054;-9.494;2023-03-11T00:48:36;99811.22;;;15.33;42.82
57616;BME280;43816;52.054;-9.494;2023-03-11T00:48:49;99796.84;;;15.24;43.15
57616;BME280;43816;52.054;-9.494;2023-03-11T00:49:00;99806.81;;;15.32;42.70
57616;BME280;43816;52.054;-9.494;2023-03-11T00:49:10;99800.22;;;15.26;42.90
57616;BME280;43816;52.054;-9.494;2023-03-11T00:49:20;99785.53;;;15.21;43.00
57616;BME280;43816;52.054;-9.494;2023-03-11T00:49:31;99811.56;;;15.30;42.68
57616;BME280;43816;52.054;-9.494;2023-03-11T00:49:41;99817.66;;;15.32;42.92
57616;BME280;43816;52.054;-9.494;2023-03-11T00:49:51;99800.41;;;15.25;42.89
57616;BME280;43816;52.054;-9.494;2023-03-11T00:50:02;99791.78;;;15.21;42.91
57616;BME280;43816;52.054;-9.494;2023-03-11T00:50:21;99797.03;;;15.23;42.66
57616;BME280;43816;52.054;-9.494;2023-03-11T00:50:34;99810.91;;;15.28;43.23
57616;BME280;43816;52.054;-9.494;2023-03-11T00:50:44;99789.41;;;15.18;42.52
57616;BME280;43816;52.054;-9.494;2023-03-11T00:50:55;99804.81;;;15.26;42.91
57616;BME280;43816;52.054;-9.494;2023-03-11T00:51:06;99814.94;;;15.32;43.04
57616;BME280;43816;52.054;-9.494;2023-03-11T00:51:17;99797.03;;;15.23;42.94
57616;BME280;43816;52.054;-9.494;2023-03-11T00:51:27;99794.31;;;15.23;43.13
57616;BME280;43816;52.054;-9.494;2023-03-11T00:51:37;99785.84;;;15.17;42.57
57616;BME280;43816;52.054;-9.494;2023-03-11T00:51:48;99801.25;;;15.25;42.94
57616;BME280;43816;52.054;-9.494;2023-03-11T00:51:58;99803.13;;;15.25;42.84
57616;BME280;43816;52.054;-9.494;2023-03-11T00:52:08;99816.00;;;15.31;42.70
57616;BME280;43816;52.054;-9.494;2023-03-11T00:52:18;99799.72;;;15.23;42.91
57616;BME280;43816;52.054;-9.494;2023-03-11T00:52:29;99776.53;;;15.12;42.89
57616;BME280;43816;52.054;-9.494;2023-03-11T00:52:39;99791.28;;;15.17;42.73
57616;BME280;43816;52.054;-9.494;2023-03-11T00:52:50;99805.66;;;15.26;43.06
57616;BME280;43816;52.054;-9.494;2023-03-11T00:53:02;99814.13;;;15.31;42.98
57616;BME280;43816;52.054;-9.494;2023-03-11T00:53:12;99788.91;;;15.14;43.01
57616;BME280;43816;52.054;-9.494;2023-03-11T00:53:22;99809.19;;;15.27;42.95
57616;BME280;43816;52.054;-9.494;2023-03-11T00:53:33;99788.25;;;15.12;42.73
57616;BME280;43816;52.054;-9.494;2023-03-11T00:53:43;99808.69;;;15.31;42.89
57616;BME280;43816;52.054;-9.494;2023-03-11T00:53:55;99813.28;;;15.31;42.77
57616;BME280;43816;52.054;-9.494;2023-03-11T00:54:05;99805.66;;;15.26;42.61
57616;BME280;43816;52.054;-9.494;2023-03-11T00:54:15;99799.72;;;15.23;42.63
57616;BME280;43816;52.054;-9.494;2023-03-11T00:54:26;99801.06;;;15.27;42.79
57616;BME280;43816;52.054;-9.494;2023-03-11T00:54:37;99794.81;;;15.26;42.52
57616;BME280;43816;52.054;-9.494;2023-03-11T00:54:47;99805.16;;;15.31;42.86
57616;BME280;43816;52.054;-9.494;2023-03-11T00:54:58;99791.44;;;15.24;43.07
57616;BME280;43816;52.054;-9.494;2023-03-11T00:55:09;99798.53;;;15.25;42.78
57616;BME280;43816;52.054;-9.494;2023-03-11T00:55:22;99805.97;;;15.31;42.69
57616;BME280;43816;52.054;-9.494;2023-03-11T00:55:33;99809.53;;;15.32;42.85
57616;BME280;43816;52.054;-9.494;2023-03-11T00:55:44;99794.81;;;15.26;42.89
57616;BME280;43816;52.054;-9.494;2023-03-11T00:55:54;99793.97;;;15.26;42.84
57616;BME280;43816;52.054;-9.494;2023-03-11T00:56:09;99800.06;;;15.28;42.87
57616;BME280;43816;52.054;-9.494;2023-03-11T00:56:19;99777.06;;;15.15;42.77
57616;BME280;43816;52.054;-9.494;2023-03-11T00:56:30;99785.34;;;15.22;42.85
57616;BME280;43816;52.054;-9.494;2023-03-11T00:56:40;99783.66;;;15.21;42.85
57616;BME280;43816;52.054;-9.494;2023-03-11T00:56:50;99787.84;;;15.24;42.79
57616;BME280;43816;52.054;-9.494;2023-03-11T00:57:01;99784.97;;;15.25;42.74
57616;BME280;43816;52.054;-9.494;2023-03-11T00:57:11;99802.44;;;15.31;42.89